Time;durP1;ratioP1;P1;durP2;ratioP2;P2;SDS_P1;SDS_P2;PMS_P1;PMS_P2;Temp;Humidity;BMP_temperature;BMP_pressure;BME280_temperature;BME280_humidity;BME280_pressure;Samples;Min_cycle;Max_cycle;Signal;HPM_P1;HPM_P2
2022/10/09 00:02:34;;;;;;;7.07;4.10;;;12.70;39.80;;;;;;10436659;28;20282;-74
2022/10/09 00:07:38;;;;;;;4.10;3.30;;;12.60;39.70;;;;;;10458956;28;20232;-74
2022/10/09 00:12:41;;;;;;;4.20;3.47;;;12.60;39.80;;;;;;10465734;28;20233;-74
2022/10/09 00:17:45;;;;;;;4.83;3.80;;;12.60;39.80;;;;;;10447380;28;20245;-74
2022/10/09 00:22:49;;;;;;;4.70;3.40;;;12.50;39.70;;;;;;10460025;28;20237;-74
2022/10/09 00:27:52;;;;;;;5.97;3.47;;;12.50;39.60;;;;;;10445866;28;20248;-74
2022/10/09 00:32:57;;;;;;;3.80;3.43;;;12.40;39.50;;;;;;10453614;28;20576;-74
2022/10/09 00:38:00;;;;;;;4.40;3.10;;;12.40;39.50;;;;;;10459681;28;20240;-74
2022/10/09 00:43:04;;;;;;;4.30;3.30;;;12.30;39.40;;;;;;10449194;28;20696;-74
2022/10/09 00:48:11;;;;;;;3.30;3.00;;;12.20;39.50;;;;;;10453990;28;20747;-74
2022/10/09 00:53:21;;;;;;;3.60;3.00;;;12.20;39.70;;;;;;10450377;28;20783;-74
2022/10/09 00:58:25;;;;;;;3.83;2.90;;;12.10;39.50;;;;;;10452281;28;20697;-74
2022/10/09 01:03:29;;;;;;;3.53;3.13;;;12.10;39.40;;;;;;10450680;28;20652;-74
2022/10/09 01:08:39;;;;;;;4.67;3.13;;;12.10;39.40;;;;;;10450234;28;20236;-74
2022/10/09 01:13:50;;;;;;;3.60;3.30;;;12.00;39.30;;;;;;10441979;28;20225;-76
2022/10/09 01:19:01;;;;;;;3.63;3.03;;;12.00;39.30;;;;;;10427768;28;20660;-76
2022/10/09 01:24:17;;;;;;;3.40;2.77;;;12.00;39.30;;;;;;10425783;28;20217;-76
2022/10/09 01:29:24;;;;;;;3.50;3.07;;;11.90;39.40;;;;;;10428560;28;20233;-75
2022/10/09 01:34:28;;;;;;;3.07;2.87;;;11.90;39.50;;;;;;10425342;28;20240;-76
2022/10/09 01:39:34;;;;;;;3.13;2.63;;;11.80;39.50;;;;;;10428589;28;20229;-76
2022/10/09 01:44:38;;;;;;;3.17;2.87;;;11.80;39.40;;;;;;10426854;28;20295;-76
2022/10/09 01:49:47;;;;;;;3.00;2.70;;;11.80;39.40;;;;;;10423593;28;20240;-76
2022/10/09 01:55:01;;;;;;;2.70;2.50;;;11.70;39.30;;;;;;10428696;28;20229;-76
2022/10/09 02:00:10;;;;;;;2.80;2.60;;;11.70;39.30;;;;;;10421254;28;20232;-76
2022/10/09 02:05:18;;;;;;;2.60;2.40;;;11.60;39.30;;;;;;10425240;28;20233;-75
2022/10/09 02:10:23;;;;;;;3.40;3.10;;;11.60;39.30;;;;;;10427713;28;20236;-75
2022/10/09 02:15:31;;;;;;;2.70;2.30;;;11.50;39.00;;;;;;10425713;28;20409;-75
2022/10/09 02:20:39;;;;;;;3.33;2.80;;;11.50;39.10;;;;;;10429470;28;20229;-75
2022/10/09 02:25:42;;;;;;;3.00;2.70;;;11.40;39.00;;;;;;10428382;28;20225;-75
2022/10/09 02:30:54;;;;;;;2.73;2.50;;;11.30;39.20;;;;;;10432879;28;20239;-75
2022/10/09 02:35:57;;;;;;;4.47;2.83;;;11.20;39.50;;;;;;10433888;28;20284;-75
2022/10/09 02:41:01;;;;;;;3.50;2.47;;;11.10;39.40;;;;;;10421471;28;20291;-76
2022/10/09 02:46:06;;;;;;;3.13;2.57;;;11.10;39.40;;;;;;10425541;28;20229;-75
2022/10/09 02:51:09;;;;;;;3.07;2.73;;;11.00;39.00;;;;;;10424398;28;20308;-75
2022/10/09 02:56:13;;;;;;;2.80;2.60;;;10.90;39.10;;;;;;10426749;28;20247;-75
2022/10/09 03:01:18;;;;;;;2.40;2.10;;;10.90;39.20;;;;;;10419073;28;20238;-75
2022/10/09 03:06:23;;;;;;;3.07;2.43;;;10.80;39.40;;;;;;10419870;28;20234;-75
2022/10/09 03:11:27;;;;;;;2.93;2.10;;;10.70;39.30;;;;;;10421801;28;20717;-75
2022/10/09 03:16:31;;;;;;;2.00;1.90;;;10.60;39.60;;;;;;10425163;28;20225;-75
2022/10/09 03:21:35;;;;;;;2.43;2.03;;;10.60;39.80;;;;;;10416739;28;20717;-75
2022/10/09 03:26:38;;;;;;;3.90;2.67;;;10.60;39.80;;;;;;10422718;28;20229;-75
2022/10/09 03:31:42;;;;;;;3.50;2.80;;;10.50;39.80;;;;;;10423265;28;20233;-75
2022/10/09 03:36:56;;;;;;;3.13;2.83;;;10.50;40.20;;;;;;10423081;28;20221;-75
2022/10/09 03:41:59;;;;;;;3.00;2.70;;;10.60;39.80;;;;;;10422445;28;20225;-75
2022/10/09 03:47:04;;;;;;;2.97;2.53;;;10.50;39.90;;;;;;10427446;28;20274;-75
2022/10/09 03:52:07;;;;;;;7.90;3.73;;;10.50;40.40;;;;;;10427805;28;20729;-75
2022/10/09 03:57:10;;;;;;;3.83;3.20;;;10.50;40.10;;;;;;10431287;28;20229;-75
2022/10/09 04:02:14;;;;;;;4.37;3.03;;;10.40;40.10;;;;;;10425589;28;20237;-75
2022/10/09 04:07:17;;;;;;;3.73;3.43;;;10.40;40.10;;;;;;10436379;28;20233;-75
2022/10/09 04:12:21;;;;;;;3.47;3.17;;;10.40;39.80;;;;;;10428740;28;20233;-75
2022/10/09 04:17:25;;;;;;;3.00;2.80;;;10.30;39.80;;;;;;10429057;28;20229;-75
2022/10/09 04:22:28;;;;;;;2.90;2.70;;;10.30;40.20;;;;;;10426721;28;20697;-75
2022/10/09 04:27:32;;;;;;;2.87;2.47;;;10.20;40.10;;;;;;10427034;28;20236;-77
2022/10/09 04:32:36;;;;;;;3.17;2.40;;;10.20;40.10;;;;;;10428711;28;20242;-75
2022/10/09 04:37:39;;;;;;;2.33;2.13;;;10.20;40.10;;;;;;10423452;28;20747;-75
2022/10/09 04:42:42;;;;;;;2.30;2.20;;;10.20;40.10;;;;;;10436368;28;20236;-75
2022/10/09 04:47:47;;;;;;;10.70;3.17;;;10.20;40.10;;;;;;10432902;28;20852;-75
2022/10/09 04:52:50;;;;;;;3.23;2.93;;;10.20;40.10;;;;;;10429368;28;20286;-75
2022/10/09 04:57:54;;;;;;;3.80;2.80;;;10.10;40.00;;;;;;10423361;28;20778;-75
2022/10/09 05:02:58;;;;;;;5.13;3.90;;;10.10;40.00;;;;;;10422502;28;20224;-75
2022/10/09 05:08:01;;;;;;;5.53;3.63;;;10.10;40.00;;;;;;10432338;28;20725;-75
2022/10/09 05:13:05;;;;;;;6.20;4.40;;;10.10;40.00;;;;;;10426519;28;21252;-75
2022/10/09 05:18:09;;;;;;;5.80;4.10;;;10.00;39.90;;;;;;10420778;28;20255;-75
2022/10/09 05:23:12;;;;;;;6.73;4.63;;;10.00;39.90;;;;;;10431067;28;20716;-75
2022/10/09 05:28:15;;;;;;;2.67;2.47;;;10.00;39.90;;;;;;10424137;28;20233;-76
2022/10/09 05:33:20;;;;;;;5.73;3.30;;;9.90;40.80;;;;;;10425472;28;20237;-76
2022/10/09 05:38:24;;;;;;;5.97;2.90;;;9.90;40.80;;;;;;10421018;28;20616;-75
2022/10/09 05:43:30;;;;;;;3.47;3.17;;;9.80;40.70;;;;;;10415850;28;20237;-75
2022/10/09 05:48:35;;;;;;;5.93;4.07;;;9.70;40.60;;;;;;10427532;28;20240;-76
2022/10/09 05:53:39;;;;;;;5.53;4.90;;;9.60;40.50;;;;;;10430914;28;20260;-76
2022/10/09 05:58:43;;;;;;;4.50;4.10;;;9.60;40.60;;;;;;10423495;28;20230;-76
2022/10/09 06:03:50;;;;;;;3.53;3.10;;;9.60;40.80;;;;;;10429616;28;20678;-76
2022/10/09 06:08:54;;;;;;;4.27;3.87;;;9.60;41.20;;;;;;10432384;28;20923;-76
2022/10/09 06:13:58;;;;;;;5.03;4.53;;;9.60;41.10;;;;;;10425981;28;20233;-76
2022/10/09 06:19:03;;;;;;;3.97;3.57;;;9.60;41.20;;;;;;10433067;28;20236;-76
2022/10/09 06:24:07;;;;;;;3.90;3.10;;;9.60;41.50;;;;;;10423418;28;20237;-76
2022/10/09 06:29:10;;;;;;;2.80;2.60;;;9.70;41.50;;;;;;10425477;28;20248;-76
2022/10/09 06:34:15;;;;;;;3.30;3.00;;;9.70;41.50;;;;;;10423936;28;20232;-76
2022/10/09 06:39:18;;;;;;;3.90;3.60;;;9.70;41.80;;;;;;10428855;28;20619;-76
2022/10/09 06:44:21;;;;;;;3.80;3.50;;;9.80;41.80;;;;;;10422055;28;20254;-76
2022/10/09 06:49:26;;;;;;;3.00;2.80;;;9.80;41.90;;;;;;10419094;28;20242;-76
2022/10/09 06:54:30;;;;;;;2.60;2.40;;;9.90;42.40;;;;;;10419884;28;20748;-76
2022/10/09 06:59:33;;;;;;;2.90;2.70;;;9.90;42.30;;;;;;10421780;28;20242;-76
2022/10/09 07:04:37;;;;;;;2.70;2.50;;;10.00;41.70;;;;;;10425334;28;20234;-76
2022/10/09 07:09:40;;;;;;;3.43;2.90;;;10.10;42.40;;;;;;10459800;23;20231;-76
2022/10/09 07:14:45;;;;;;;3.27;2.97;;;10.20;42.50;;;;;;10445900;28;20234;-77
2022/10/09 07:19:50;;;;;;;3.90;3.20;;;10.30;42.80;;;;;;10478312;28;20243;-76
2022/10/09 07:24:53;;;;;;;3.57;3.27;;;10.40;43.90;;;;;;10495146;28;20282;-78
2022/10/09 07:29:57;;;;;;;3.80;3.43;;;10.50;43.50;;;;;;10492052;28;20229;-78
2022/10/09 07:35:01;;;;;;;3.90;3.50;;;10.70;44.10;;;;;;10499742;28;20229;-79
2022/10/09 07:40:06;;;;;;;4.43;4.00;;;10.90;45.10;;;;;;10482341;28;21062;-78
2022/10/09 07:45:10;;;;;;;4.20;3.47;;;11.10;45.00;;;;;;10490975;28;20280;-79
2022/10/09 07:50:15;;;;;;;5.00;3.87;;;11.30;45.20;;;;;;10485762;28;20982;-78
2022/10/09 07:55:18;;;;;;;4.17;3.70;;;11.50;45.80;;;;;;10485495;28;20790;-79
2022/10/09 08:00:21;;;;;;;4.20;3.80;;;11.70;45.30;;;;;;10478047;28;20600;-78
2022/10/09 08:05:26;;;;;;;4.90;3.57;;;11.90;45.40;;;;;;10492075;28;20232;-78
2022/10/09 08:10:30;;;;;;;3.73;3.43;;;12.10;46.20;;;;;;10488225;28;20293;-78
2022/10/09 08:15:33;;;;;;;4.97;3.00;;;12.40;46.10;;;;;;10489889;28;20223;-78
2022/10/09 08:20:38;;;;;;;4.50;3.73;;;12.60;45.60;;;;;;10486154;28;20227;-79
2022/10/09 08:25:41;;;;;;;3.47;2.93;;;12.80;47.00;;;;;;10478866;28;20642;-80
2022/10/09 08:30:45;;;;;;;3.77;2.80;;;13.00;45.80;;;;;;10482756;28;20224;-78
2022/10/09 08:35:50;;;;;;;5.80;3.63;;;13.20;45.90;;;;;;10487844;28;20310;-77
2022/10/09 08:41:00;;;;;;;3.63;3.23;;;13.40;45.80;;;;;;10478857;28;20240;-77
2022/10/09 08:46:11;;;;;;;3.87;3.23;;;13.60;45.80;;;;;;10488886;28;20220;-76
2022/10/09 08:51:22;;;;;;;5.33;3.67;;;13.80;45.60;;;;;;10486506;28;20304;-83
2022/10/09 08:56:27;;;;;;;5.07;3.40;;;14.00;45.40;;;;;;10482601;28;20225;-82
2022/10/09 09:01:37;;;;;;;3.87;3.20;;;14.20;44.60;;;;;;10487626;28;20702;-81
2022/10/09 09:06:48;;;;;;;6.00;3.40;;;14.40;44.50;;;;;;10479534;28;20787;-78
2022/10/09 09:11:57;;;;;;;4.37;3.60;;;14.60;44.00;;;;;;10472625;28;20281;-79
2022/10/09 09:17:08;;;;;;;4.47;3.70;;;14.70;44.10;;;;;;10485526;28;20235;-79
2022/10/09 09:22:14;;;;;;;3.90;3.20;;;14.90;43.60;;;;;;10485086;28;20220;-78
2022/10/09 09:27:19;;;;;;;4.10;3.70;;;15.10;44.00;;;;;;10481984;28;20766;-78
2022/10/09 09:32:26;;;;;;;3.90;3.60;;;15.20;43.70;;;;;;10481871;28;20236;-79
2022/10/09 09:37:30;;;;;;;4.27;3.20;;;15.30;43.20;;;;;;10478714;28;20232;-78
2022/10/09 09:42:34;;;;;;;4.73;3.90;;;15.40;43.00;;;;;;10491137;28;20593;-78
2022/10/09 09:47:43;;;;;;;3.73;3.43;;;15.50;43.00;;;;;;10482449;28;20237;-78
2022/10/09 09:52:48;;;;;;;4.17;3.40;;;15.60;42.40;;;;;;10479974;28;21223;-79
2022/10/09 09:57:51;;;;;;;4.80;3.40;;;15.80;42.60;;;;;;10480579;28;20254;-78
2022/10/09 10:03:03;;;;;;;3.40;3.10;;;15.90;42.70;;;;;;10476651;28;20236;-79
2022/10/09 10:08:16;;;;;;;3.30;3.00;;;16.00;41.70;;;;;;10473430;28;20225;-79
2022/10/09 10:13:22;;;;;;;3.23;2.70;;;16.10;41.80;;;;;;10442430;28;21076;-79
2022/10/09 10:18:28;;;;;;;3.70;3.00;;;16.20;41.80;;;;;;10441227;28;20237;-79
2022/10/09 10:23:37;;;;;;;3.60;3.20;;;16.30;41.80;;;;;;10441481;28;20286;-79
2022/10/09 10:28:48;;;;;;;6.10;2.63;;;16.40;41.20;;;;;;10433166;28;20238;-79
2022/10/09 10:33:56;;;;;;;4.33;3.13;;;16.50;41.00;;;;;;10443630;28;20229;-78
2022/10/09 10:39:08;;;;;;;3.83;3.10;;;16.60;40.80;;;;;;10448984;28;20701;-78
2022/10/09 10:44:21;;;;;;;2.70;2.50;;;16.70;40.10;;;;;;10441112;28;20221;-78
2022/10/09 10:49:25;;;;;;;3.50;3.20;;;16.70;39.70;;;;;;10450976;28;20240;-79
2022/10/09 10:54:39;;;;;;;2.97;2.77;;;16.70;40.70;;;;;;10443986;28;20233;-78
2022/10/09 10:59:49;;;;;;;3.60;2.70;;;16.80;39.50;;;;;;10425440;28;20234;-79
2022/10/09 11:04:58;;;;;;;5.03;2.77;;;16.80;39.80;;;;;;10436553;28;20237;-78
2022/10/09 11:10:11;;;;;;;5.27;2.70;;;16.80;39.50;;;;;;10463273;28;20232;-79
2022/10/09 11:15:24;;;;;;;3.87;2.73;;;16.90;39.10;;;;;;10443283;28;20815;-79
2022/10/09 11:20:57;;;;;;;3.07;2.40;;;16.90;39.00;;;;;;10441431;28;20242;-79
2022/10/09 11:26:14;;;;;;;2.77;2.37;;;16.90;39.00;;;;;;10446961;28;20233;-78
2022/10/09 11:31:21;;;;;;;2.40;2.20;;;16.90;38.90;;;;;;10447399;28;20664;-79
2022/10/09 11:36:31;;;;;;;2.47;2.23;;;17.00;39.00;;;;;;10447089;28;20236;-79
2022/10/09 11:41:37;;;;;;;2.70;2.40;;;17.00;39.20;;;;;;10473100;28;20236;-78
2022/10/09 11:46:45;;;;;;;3.67;2.37;;;17.10;39.10;;;;;;10468256;28;20241;-78
2022/10/09 11:51:55;;;;;;;3.83;2.90;;;17.20;38.90;;;;;;10446730;28;20225;-79
2022/10/09 11:57:01;;;;;;;2.73;2.10;;;17.20;38.50;;;;;;10450586;28;20720;-79
2022/10/09 12:02:24;;;;;;;3.30;2.33;;;17.20;38.60;;;;;;10453337;28;20328;-79
2022/10/09 12:07:30;;;;;;;3.53;2.50;;;17.30;38.40;;;;;;10460023;28;20235;-78
2022/10/09 12:12:37;;;;;;;2.83;2.30;;;17.40;38.90;;;;;;10474364;28;20646;-78
2022/10/09 12:17:48;;;;;;;2.13;1.87;;;17.40;38.80;;;;;;10452779;28;20245;-79
2022/10/09 12:22:55;;;;;;;2.90;2.47;;;17.50;38.20;;;;;;10474054;28;20232;-78
2022/10/09 12:28:26;;;;;;;2.70;1.90;;;17.60;38.40;;;;;;10471457;28;20291;-79
2022/10/09 12:33:36;;;;;;;2.60;2.40;;;17.70;38.10;;;;;;10476796;28;20228;-78
2022/10/09 12:38:39;;;;;;;3.80;2.90;;;17.70;37.80;;;;;;10491051;28;20246;-78
2022/10/09 12:43:46;;;;;;;3.77;2.67;;;17.80;38.70;;;;;;10452416;28;20229;-78
2022/10/09 12:48:49;;;;;;;2.67;2.40;;;17.80;38.00;;;;;;10475981;28;20229;-79
2022/10/09 12:53:53;;;;;;;3.47;2.27;;;17.90;38.60;;;;;;10450556;28;20244;-78
2022/10/09 12:58:59;;;;;;;2.57;2.37;;;17.90;38.40;;;;;;10462592;28;20894;-79
2022/10/09 13:04:05;;;;;;;2.33;2.13;;;18.00;37.80;;;;;;10464238;28;20235;-79
2022/10/09 13:09:17;;;;;;;2.97;2.40;;;18.00;37.70;;;;;;10456458;28;20228;-78
2022/10/09 13:14:34;;;;;;;3.97;1.93;;;18.00;37.80;;;;;;10454002;28;20263;-78
2022/10/09 13:19:37;;;;;;;2.80;2.07;;;18.00;37.20;;;;;;10455101;28;20247;-78
2022/10/09 13:24:40;;;;;;;5.37;4.93;;;18.00;38.30;;;;;;10455205;28;20599;-78
2022/10/09 13:29:45;;;;;;;4.43;2.60;;;18.10;38.20;;;;;;10447479;28;20263;-78
2022/10/09 13:34:49;;;;;;;4.10;3.00;;;18.10;38.60;;;;;;10455209;28;20879;-78
2022/10/09 13:39:52;;;;;;;7.10;4.20;;;18.20;38.30;;;;;;10441480;28;20239;-79
2022/10/09 13:44:57;;;;;;;5.20;2.60;;;18.20;37.90;;;;;;10442902;28;20259;-78
2022/10/09 13:50:00;;;;;;;3.93;3.53;;;18.30;37.90;;;;;;10448921;28;20244;-78
2022/10/09 13:55:04;;;;;;;7.60;5.27;;;18.30;38.00;;;;;;10447639;28;20229;-78
2022/10/09 14:00:13;;;;;;;5.17;4.30;;;18.30;38.10;;;;;;10439745;28;20233;-78
2022/10/09 14:05:16;;;;;;;5.53;2.60;;;18.30;37.60;;;;;;10447841;28;20221;-78
2022/10/09 14:10:21;;;;;;;3.47;2.83;;;18.40;38.20;;;;;;10470490;28;20236;-78
2022/10/09 14:15:28;;;;;;;6.67;3.30;;;18.50;38.20;;;;;;10496283;28;20228;-77
2022/10/09 14:20:31;;;;;;;5.30;3.77;;;18.50;37.40;;;;;;10481880;28;20313;-78
2022/10/09 14:25:35;;;;;;;3.00;2.70;;;18.60;38.10;;;;;;10473971;28;20316;-78
2022/10/09 14:30:41;;;;;;;5.30;3.50;;;18.60;38.00;;;;;;10490711;28;20232;-77
2022/10/09 14:35:44;;;;;;;4.47;3.00;;;18.60;37.20;;;;;;10501326;28;20231;-76
2022/10/09 14:40:48;;;;;;;2.90;2.40;;;18.60;38.00;;;;;;10518083;28;20254;-76
2022/10/09 14:46:01;;;;;;;5.17;2.13;;;18.60;37.90;;;;;;10519563;28;20285;-76
2022/10/09 14:51:06;;;;;;;2.20;2.00;;;18.70;38.30;;;;;;10519607;28;20242;-75
2022/10/09 14:56:12;;;;;;;2.60;2.40;;;18.70;38.10;;;;;;10520199;28;20651;-76
2022/10/09 15:01:19;;;;;;;2.60;2.37;;;18.70;37.60;;;;;;10518223;28;20613;-75
2022/10/09 15:06:23;;;;;;;2.33;2.13;;;18.80;37.60;;;;;;10519180;28;20250;-76
2022/10/09 15:11:27;;;;;;;2.30;2.10;;;18.80;38.00;;;;;;10519308;28;20231;-76
2022/10/09 15:16:32;;;;;;;2.30;2.10;;;18.80;37.90;;;;;;10518492;28;20227;-76
2022/10/09 15:21:36;;;;;;;4.13;2.23;;;18.80;37.50;;;;;;10519576;28;20231;-76
2022/10/09 15:26:40;;;;;;;3.83;2.60;;;18.80;37.60;;;;;;10512992;28;20238;-76
2022/10/09 15:31:45;;;;;;;3.40;3.10;;;18.70;37.40;;;;;;10511306;28;20224;-76
2022/10/09 15:36:48;;;;;;;4.67;3.47;;;18.70;37.00;;;;;;10511391;28;20231;-76
2022/10/09 15:41:51;;;;;;;6.13;3.50;;;18.70;37.40;;;;;;10512316;28;20848;-75
2022/10/09 15:46:56;;;;;;;4.70;3.57;;;18.70;38.40;;;;;;10511866;28;20281;-75
2022/10/09 15:51:59;;;;;;;3.40;3.10;;;18.70;37.30;;;;;;10504570;28;20236;-75
2022/10/09 15:57:02;;;;;;;2.63;2.43;;;18.70;37.40;;;;;;10474109;28;20236;-75
2022/10/09 16:02:08;;;;;;;2.00;1.80;;;18.70;37.30;;;;;;10475245;28;20220;-75
2022/10/09 16:07:11;;;;;;;2.40;1.70;;;18.60;36.80;;;;;;10476889;28;20281;-76
2022/10/09 16:12:15;;;;;;;2.90;1.90;;;18.60;36.90;;;;;;10477094;28;20231;-76
2022/10/09 16:17:19;;;;;;;2.27;1.63;;;18.60;37.00;;;;;;10476933;28;20243;-75
2022/10/09 16:22:22;;;;;;;4.10;2.10;;;18.50;36.80;;;;;;10476823;28;20259;-76
2022/10/09 16:27:26;;;;;;;3.90;3.23;;;18.50;37.00;;;;;;10474619;28;20236;-75
2022/10/09 16:32:30;;;;;;;3.90;3.50;;;18.50;37.00;;;;;;10477690;28;20236;-75
2022/10/09 16:37:33;;;;;;;6.37;5.77;;;18.40;36.80;;;;;;10476408;28;20876;-75
2022/10/09 16:42:37;;;;;;;5.37;4.43;;;18.30;37.00;;;;;;10476596;28;20240;-75
2022/10/09 16:47:43;;;;;;;5.20;3.00;;;18.30;37.00;;;;;;10478923;28;20228;-76
2022/10/09 16:52:46;;;;;;;2.17;1.97;;;18.30;36.80;;;;;;10483598;28;20232;-75
2022/10/09 16:57:49;;;;;;;3.13;1.80;;;18.20;37.20;;;;;;10483400;28;20349;-75
2022/10/09 17:02:54;;;;;;;9.37;8.37;;;18.20;37.10;;;;;;10483636;28;20228;-75
2022/10/09 17:07:57;;;;;;;4.40;2.83;;;18.10;36.90;;;;;;10479276;28;20232;-75
2022/10/09 17:13:00;;;;;;;2.77;2.30;;;18.00;37.00;;;;;;10483054;28;20276;-75
2022/10/09 17:18:05;;;;;;;2.17;1.97;;;18.00;37.00;;;;;;10481973;28;20243;-75
2022/10/09 17:23:08;;;;;;;2.57;2.00;;;17.90;36.90;;;;;;10481381;28;20232;-76
2022/10/09 17:28:11;;;;;;;2.30;1.90;;;17.80;37.00;;;;;;10482495;28;20240;-77
2022/10/09 17:33:16;;;;;;;3.70;2.47;;;17.70;37.00;;;;;;10490473;28;20251;-77
2022/10/09 17:38:22;;;;;;;3.27;2.10;;;17.70;36.80;;;;;;10481830;28;20242;-76
2022/10/09 17:43:25;;;;;;;3.20;1.87;;;17.60;36.70;;;;;;10482234;28;20289;-75
2022/10/09 17:48:31;;;;;;;2.67;1.80;;;17.50;36.70;;;;;;10481008;28;20240;-75
2022/10/09 17:53:34;;;;;;;2.30;1.87;;;17.50;36.60;;;;;;10481141;28;20986;-75
2022/10/09 17:58:38;;;;;;;2.73;2.53;;;17.50;36.90;;;;;;10480724;28;20286;-75
2022/10/09 18:03:43;;;;;;;2.50;2.10;;;17.40;37.00;;;;;;10479992;28;20650;-76
2022/10/09 18:08:46;;;;;;;2.33;1.83;;;17.30;36.90;;;;;;10462323;28;20232;-75
2022/10/09 18:13:50;;;;;;;3.53;2.00;;;17.30;37.10;;;;;;10445435;28;20290;-76
2022/10/09 18:18:55;;;;;;;1.83;1.70;;;17.30;37.20;;;;;;10438866;28;20314;-75
2022/10/09 18:23:58;;;;;;;2.30;2.00;;;17.20;37.10;;;;;;10438734;28;20229;-76
2022/10/09 18:29:02;;;;;;;3.27;2.37;;;17.20;37.30;;;;;;10438935;28;20938;-77
2022/10/09 18:34:06;;;;;;;3.23;2.03;;;17.20;37.30;;;;;;10436067;28;20275;-76
2022/10/09 18:39:13;;;;;;;2.70;2.50;;;17.20;37.20;;;;;;10437183;28;20228;-76
2022/10/09 18:44:19;;;;;;;3.60;2.53;;;17.10;37.00;;;;;;10437126;28;20240;-74
2022/10/09 18:49:27;;;;;;;4.23;2.80;;;17.10;37.30;;;;;;10436242;28;20249;-75
2022/10/09 18:54:30;;;;;;;2.90;2.70;;;17.10;37.30;;;;;;10436427;28;20278;-75
2022/10/09 18:59:36;;;;;;;4.87;2.70;;;17.00;37.30;;;;;;10436796;28;20236;-75
2022/10/09 19:04:41;;;;;;;4.00;2.63;;;17.00;37.10;;;;;;10436386;28;20279;-75
2022/10/09 19:09:47;;;;;;;2.73;2.17;;;17.00;37.10;;;;;;10436409;28;20307;-74
2022/10/09 19:14:56;;;;;;;3.50;2.30;;;17.00;37.30;;;;;;10437366;28;20303;-75
2022/10/09 19:20:01;;;;;;;2.60;2.10;;;16.90;37.10;;;;;;10444341;28;20232;-75
2022/10/09 19:25:05;;;;;;;2.33;2.13;;;16.80;37.10;;;;;;10435438;28;20232;-76
2022/10/09 19:30:10;;;;;;;2.07;1.90;;;16.80;37.20;;;;;;10436622;28;20248;-74
2022/10/09 19:35:15;;;;;;;2.10;1.90;;;16.70;37.10;;;;;;10465424;28;20235;-75
2022/10/09 19:40:18;;;;;;;2.20;2.00;;;16.70;37.30;;;;;;10477054;28;20247;-75
2022/10/09 19:45:21;;;;;;;2.50;2.00;;;16.60;37.10;;;;;;10477565;28;20282;-75
2022/10/09 19:50:26;;;;;;;3.23;2.50;;;16.50;37.00;;;;;;10475436;28;20242;-75
2022/10/09 19:55:32;;;;;;;2.70;2.50;;;16.40;37.00;;;;;;10476671;28;20303;-75
2022/10/09 20:00:41;;;;;;;3.50;2.40;;;16.30;37.10;;;;;;10476942;28;20248;-76
2022/10/09 20:05:46;;;;;;;3.53;2.93;;;16.20;36.90;;;;;;10465615;22;20231;-75
2022/10/09 20:10:49;;;;;;;4.87;3.07;;;16.10;36.90;;;;;;10475120;28;20743;-73
2022/10/09 20:21:03;;;;;;;2.27;2.07;;;16.10;37.30;;;;;;10483521;28;21071;-72
2022/10/09 20:26:09;;;;;;;2.30;2.03;;;16.00;37.40;;;;;;10493592;28;20235;-71
2022/10/09 20:31:16;;;;;;;2.80;2.20;;;15.90;37.40;;;;;;10501140;28;20231;-72
2022/10/09 20:36:24;;;;;;;6.17;2.10;;;15.90;37.50;;;;;;10507948;28;20230;-72
2022/10/09 20:41:29;;;;;;;3.00;2.20;;;15.90;38.30;;;;;;10503726;28;20239;-72
2022/10/09 20:46:34;;;;;;;3.50;2.40;;;15.80;37.50;;;;;;10500222;28;20238;-72
2022/10/09 20:51:40;;;;;;;2.20;2.00;;;15.70;37.50;;;;;;10499406;28;20231;-72
2022/10/09 20:56:44;;;;;;;4.27;2.30;;;15.70;37.50;;;;;;10500502;28;20239;-72
2022/10/09 21:01:47;;;;;;;2.90;2.60;;;15.60;37.50;;;;;;10502219;28;20232;-72
2022/10/09 21:06:52;;;;;;;2.53;2.20;;;15.60;37.60;;;;;;10503576;28;20730;-72
2022/10/09 21:11:55;;;;;;;2.50;2.00;;;15.50;37.60;;;;;;10502560;28;20230;-72
2022/10/09 21:16:58;;;;;;;2.83;2.30;;;15.40;37.60;;;;;;10498482;28;20250;-72
2022/10/09 21:22:03;;;;;;;4.60;4.13;;;15.40;37.70;;;;;;10499930;28;20230;-72
2022/10/09 21:27:06;;;;;;;3.50;3.20;;;15.30;37.80;;;;;;10499747;28;20236;-72
2022/10/09 21:32:10;;;;;;;3.97;2.67;;;15.30;37.80;;;;;;10499955;28;20231;-72
2022/10/09 21:37:14;;;;;;;2.97;2.33;;;15.20;37.90;;;;;;10492613;28;20234;-72
2022/10/09 21:42:23;;;;;;;2.00;1.90;;;15.20;38.10;;;;;;10501861;28;20235;-72
2022/10/09 21:47:27;;;;;;;2.43;2.03;;;15.20;38.10;;;;;;10503281;28;20601;-72
2022/10/09 21:52:31;;;;;;;2.80;2.30;;;15.20;38.10;;;;;;10498740;28;20240;-72
2022/10/09 21:57:34;;;;;;;2.47;2.13;;;15.20;38.10;;;;;;10500237;28;20231;-72
2022/10/09 22:02:38;;;;;;;3.23;2.07;;;15.20;38.00;;;;;;10501700;28;20235;-72
2022/10/09 22:07:42;;;;;;;2.03;1.83;;;15.10;38.00;;;;;;10501922;28;20901;-72
2022/10/09 22:12:45;;;;;;;3.73;2.37;;;15.10;38.20;;;;;;10507939;28;20223;-71
2022/10/09 22:17:49;;;;;;;3.17;2.30;;;15.10;38.20;;;;;;10507762;28;20711;-72
2022/10/09 22:22:54;;;;;;;2.67;2.20;;;15.10;38.20;;;;;;10507131;28;20283;-72
2022/10/09 22:27:57;;;;;;;2.10;2.00;;;15.10;38.40;;;;;;10501284;28;20224;-72
2022/10/09 22:33:00;;;;;;;2.30;2.10;;;15.00;38.20;;;;;;10501072;28;20224;-72
2022/10/09 22:38:05;;;;;;;1.87;1.70;;;15.00;38.20;;;;;;10500477;28;20232;-71
2022/10/09 22:43:08;;;;;;;2.23;2.00;;;15.00;38.20;;;;;;10505650;28;20314;-71
2022/10/09 22:48:11;;;;;;;2.20;2.00;;;15.00;38.20;;;;;;10502614;28;20293;-72
2022/10/09 22:53:16;;;;;;;3.10;2.00;;;14.90;38.20;;;;;;10503854;28;20220;-70
2022/10/09 22:58:19;;;;;;;3.03;2.20;;;14.90;38.20;;;;;;10508210;28;20721;-71
2022/10/09 23:03:22;;;;;;;2.03;1.93;;;14.90;38.20;;;;;;10504867;28;20246;-72
2022/10/09 23:08:26;;;;;;;1.83;1.73;;;14.80;38.10;;;;;;10502627;28;20821;-71
2022/10/09 23:13:30;;;;;;;2.63;1.83;;;14.80;38.30;;;;;;10506392;28;20231;-71
2022/10/09 23:18:34;;;;;;;2.10;1.90;;;14.80;38.30;;;;;;10506078;28;20236;-71
2022/10/09 23:23:39;;;;;;;3.47;2.00;;;14.80;38.30;;;;;;10510536;28;20699;-71
2022/10/09 23:28:42;;;;;;;2.17;1.97;;;14.70;38.40;;;;;;10500922;28;20236;-72
2022/10/09 23:33:46;;;;;;;2.77;2.00;;;14.70;38.40;;;;;;10498620;28;20235;-72
2022/10/09 23:38:51;;;;;;;3.47;1.93;;;14.70;39.20;;;;;;10505450;28;20231;-71
2022/10/09 23:43:55;;;;;;;2.33;1.97;;;14.60;38.40;;;;;;10503827;28;20230;-71
2022/10/09 23:48:58;;;;;;;3.07;2.17;;;14.70;38.50;;;;;;10503668;28;20236;-72
2022/10/09 23:54:03;;;;;;;1.67;1.57;;;14.50;38.40;;;;;;10501318;28;20713;-72
2022/10/09 23:59:06;;;;;;;1.73;1.63;;;14.50;38.60;;;;;;10504012;28;20281;-71
